Kars, Turkey

7:54 AM EEST on September 29, 2016 (GMT +0300)
Gyumri Shirak Airport | | Change Station

Elev 5000 ft 40.75 °N, 43.86 °E | Updated 24 minutes ago

Scattered Clouds
Scattered Clouds
48 °F
Feels Like 48 °F
N
0
Wind Variable Wind from North

Today
High -- | Low -- °F
--% Chance of Precip.
Yesterday
High -- | Low -- °F
Precip. -- in
Pressure 30.18 in
Visibility 6.2 miles
Clouds Scattered Clouds 4900 ft
Dew Point 32 °F
Humidity 54%
Rainfall 0.00 in
Snow Depth Not available.
6:02 AM 5:52 PM
Waning Crescent, 3% visible
METAR UDSG 290430Z 00000KT 9999 SCT049 09/M00 Q1022 R02/CLRD70 NOSIG
Pressure 30.18 in
Visibility 6.2 miles
Clouds Scattered Clouds 4900 ft
Dew Point 32 °F
Humidity 54%
Rainfall 0.00 in
Snow Depth Not available.
6:02 AM 5:52 PM
Waning Crescent, 3% visible
METAR UDSG 290430Z 00000KT 9999 SCT049 09/M00 Q1022 R02/CLRD70 NOSIG

10-Day Weather Forecast

×

Almanac

Astronomy

Sep. 29, 2016 Rise Set
Actual Time
Civil Twilight
Nautical Twilight
Astronomical Twilight
Moon
Length of Visible Light
Length of Day
Tomorrow will be .
, % of the Moon is Illuminated

Today's Extremes

Country Highs Country Lows

Community

WunderPhotos

Upload Photos

1,942,435 photos uploaded!

WunderBlog® & News

Nearby

Air Quality

  Air Quality AQ Index Pollutant
Not available.

Snow Depth

Station Depth Elevation

Earthquake Activity

City Distance Mag. Time & Date
Minimum magnitude displayed is 2.5.

Coastal Water Temperatures

Place Temperature

Stations

Nearby Weather Stations

Station Location Temp. Windchill Dew Point Humidity Wind Precip. Elev Updated Type